Check out our new PWSWeather beta!
PWSweather.com
Personal Weather Stations
Station Observations
ITROMSTR4
From Fagereng Towards West Sandnessundet, TromsoeNO 9013

From Fagereng Towards West SandnessundetTromsoeNO 9013

Lat: 69.644853, Lon: 18.908345

Elevation: 150

Station Type: WH-1080

http://www.hugooien.no/?go=weather

Latest ConditionsUpdated 7:40:00 PM GMT+01:01 Monday, Feb 24, 2020
Currently Today's Max Today's Min Today's Average
Temperature 27.0°F-2.8°C 34.0°F1.1°C 26.8°F-2.9°C 29.2°F-1.6°C
Dew Point 21.0°F-6.1°C 28.4°F-2.0°C 19.3°F-7.1°C 23.5°F-4.7°C
Winds 6.0 mph W9.7 kmh W 16.1 mph -25.9 kmh - - 5.7 mph 9.2 kmh
Wind Gusts 14.5 mph23.3 kmh 28.9 mph46.5 kmh - -
Humidity 78% 82% 71% 79%
Pressure 29.97 in1014.9 mb 29.97 in1014.9 mb 29.41 in995.9 mb -
Hour Temp Dew Point Humidity Winds Wind Gusts Pressure Precip Precip Rate Daily Precip Total
07:40 PM 27.0°F-2.8°C 21.0°F-6.1°C 78% 6.0 mph W9.7 kmh W 14.5 mph23.3 kmh 29.97 in1014.9 mb 0.00 in0.0 mm 0.00 in0.0 mm 0.00 in0.0 mm
07:35 PM 26.8°F-2.9°C 20.9°F-6.2°C 78% 4.1 mph WSW6.6 kmh WSW 14.5 mph23.3 kmh 29.96 in1014.6 mb 0.00 in0.0 mm 0.00 in0.0 mm 0.00 in0.0 mm
07:30 PM 26.8°F-2.9°C 20.6°F-6.3°C 77% 4.9 mph WSW7.9 kmh WSW 13.0 mph20.9 kmh 29.95 in1014.2 mb 0.00 in0.0 mm 0.00 in0.0 mm 0.00 in0.0 mm
07:25 PM 26.8°F-2.9°C 20.3°F-6.5°C 76% 7.9 mph SW12.7 kmh SW 13.6 mph21.9 kmh 29.96 in1014.6 mb 0.00 in0.0 mm 0.00 in0.0 mm 0.00 in0.0 mm
07:20 PM 27.0°F-2.8°C 20.1°F-6.6°C 75% 9.6 mph SW15.4 kmh SW 20.6 mph33.2 kmh 29.95 in1014.2 mb 0.00 in0.0 mm 0.00 in0.0 mm 0.00 in0.0 mm
07:15 PM 27.1°F-2.7°C 20.3°F-6.5°C 75% 10.8 mph SW17.4 kmh SW 20.6 mph33.2 kmh 29.95 in1014.2 mb 0.00 in0.0 mm 0.00 in0.0 mm 0.00 in0.0 mm
07:10 PM 27.3°F-2.6°C 20.2°F-6.6°C 74% 11.2 mph SW18.0 kmh SW 19.7 mph31.7 kmh 29.94 in1013.9 mb 0.00 in0.0 mm 0.00 in0.0 mm 0.00 in0.0 mm
07:05 PM 27.5°F-2.5°C 20.3°F-6.5°C 74% 11.1 mph SSW17.9 kmh SSW 19.7 mph31.7 kmh 29.93 in1013.5 mb 0.00 in0.0 mm 0.00 in0.0 mm 0.00 in0.0 mm
07:00 PM 27.5°F-2.5°C 20.0°F-6.7°C 73% 10.8 mph S17.4 kmh S 18.3 mph29.5 kmh 29.94 in1013.9 mb 0.00 in0.0 mm 0.00 in0.0 mm 0.00 in0.0 mm
06:55 PM 27.5°F-2.5°C 20.0°F-6.7°C 73% 10.1 mph SSE16.3 kmh SSE 18.3 mph29.5 kmh 29.94 in1013.9 mb 0.00 in0.0 mm 0.00 in0.0 mm 0.00 in0.0 mm
06:50 PM 27.3°F-2.6°C 19.5°F-6.9°C 72% 8.6 mph S13.8 kmh S 17.4 mph28.0 kmh 29.93 in1013.5 mb 0.00 in0.0 mm 0.00 in0.0 mm 0.00 in0.0 mm
06:45 PM 27.3°F-2.6°C 19.5°F-6.9°C 72% 7.3 mph SSW11.7 kmh SSW 13.0 mph20.9 kmh 29.94 in1013.9 mb 0.00 in0.0 mm 0.00 in0.0 mm 0.00 in0.0 mm
06:40 PM 27.3°F-2.6°C 19.5°F-6.9°C 72% 6.7 mph SSW10.8 kmh SSW 11.4 mph18.3 kmh 29.93 in1013.5 mb 0.00 in0.0 mm 0.00 in0.0 mm 0.00 in0.0 mm
06:35 PM 27.3°F-2.6°C 19.5°F-6.9°C 72% 6.7 mph S10.8 kmh S 11.4 mph18.3 kmh 29.93 in1013.5 mb 0.00 in0.0 mm 0.00 in0.0 mm 0.00 in0.0 mm
06:30 PM 27.1°F-2.7°C 19.3°F-7.1°C 72% 7.9 mph S12.7 kmh S 14.5 mph23.3 kmh 29.93 in1013.5 mb 0.00 in0.0 mm 0.00 in0.0 mm 0.00 in0.0 mm
06:25 PM 27.5°F-2.5°C 20.0°F-6.7°C 73% 8.7 mph SSW14.0 kmh SSW 15.2 mph24.5 kmh 29.93 in1013.5 mb 0.00 in0.0 mm 0.00 in0.0 mm 0.00 in0.0 mm
06:20 PM 27.5°F-2.5°C 20.0°F-6.7°C 73% 9.3 mph SSW15.0 kmh SSW 19.7 mph31.7 kmh 29.94 in1013.9 mb 0.00 in0.0 mm 0.00 in0.0 mm 0.00 in0.0 mm
06:15 PM 27.5°F-2.5°C 20.0°F-6.7°C 73% 8.6 mph S13.8 kmh S 19.7 mph31.7 kmh 29.93 in1013.5 mb 0.00 in0.0 mm 0.00 in0.0 mm 0.00 in0.0 mm
06:10 PM 27.3°F-2.6°C 20.2°F-6.6°C 74% 7.8 mph SSW12.6 kmh SSW 12.1 mph19.5 kmh 29.93 in1013.5 mb 0.00 in0.0 mm 0.00 in0.0 mm 0.00 in0.0 mm
06:05 PM 27.1°F-2.7°C 20.0°F-6.7°C 74% 8.5 mph SSW13.7 kmh SSW 13.0 mph20.9 kmh 29.93 in1013.5 mb 0.00 in0.0 mm 0.00 in0.0 mm 0.00 in0.0 mm
06:00 PM 27.0°F-2.8°C 20.1°F-6.6°C 75% 9.0 mph S14.5 kmh S 13.6 mph21.9 kmh 29.93 in1013.5 mb 0.00 in0.0 mm 0.00 in0.0 mm 0.00 in0.0 mm
05:55 PM 27.0°F-2.8°C 20.1°F-6.6°C 75% 9.1 mph S14.6 kmh S 13.6 mph21.9 kmh 29.93 in1013.5 mb 0.00 in0.0 mm 0.00 in0.0 mm 0.00 in0.0 mm
05:50 PM 27.0°F-2.8°C 20.1°F-6.6°C 75% 11.2 mph SSW18.0 kmh SSW 19.0 mph30.6 kmh 29.93 in1013.5 mb 0.00 in0.0 mm 0.00 in0.0 mm 0.00 in0.0 mm
05:45 PM 27.0°F-2.8°C 20.1°F-6.6°C 75% 13.5 mph SW21.7 kmh SW 19.0 mph30.6 kmh 29.93 in1013.5 mb 0.00 in0.0 mm 0.00 in0.0 mm 0.00 in0.0 mm
05:40 PM 27.0°F-2.8°C 19.8°F-6.8°C 74% 13.8 mph SW22.2 kmh SW 19.0 mph30.6 kmh 29.93 in1013.5 mb 0.00 in0.0 mm 0.00 in0.0 mm 0.00 in0.0 mm
05:35 PM 27.1°F-2.7°C 19.7°F-6.8°C 73% 12.0 mph SW19.3 kmh SW 19.0 mph30.6 kmh 29.93 in1013.5 mb 0.00 in0.0 mm 0.00 in0.0 mm 0.00 in0.0 mm
05:30 PM 27.5°F-2.5°C 20.0°F-6.7°C 73% 10.4 mph SW16.7 kmh SW 25.1 mph40.4 kmh 29.93 in1013.5 mb 0.00 in0.0 mm 0.00 in0.0 mm 0.00 in0.0 mm
05:25 PM 27.9°F-2.3°C 20.0°F-6.7°C 72% 9.4 mph SSW15.1 kmh SSW 25.1 mph40.4 kmh 29.93 in1013.5 mb 0.00 in0.0 mm 0.00 in0.0 mm 0.00 in0.0 mm
05:20 PM 28.6°F-1.9°C 20.4°F-6.4°C 71% 8.4 mph ENE13.5 kmh ENE 15.2 mph24.5 kmh 29.93 in1013.5 mb 0.00 in0.0 mm 0.00 in0.0 mm 0.00 in0.0 mm
05:15 PM 28.4°F-2.0°C 20.2°F-6.6°C 71% 9.0 mph ENE14.5 kmh ENE 15.9 mph25.6 kmh 29.93 in1013.5 mb 0.00 in0.0 mm 0.00 in0.0 mm 0.00 in0.0 mm
05:10 PM 28.4°F-2.0°C 20.6°F-6.3°C 72% 8.9 mph ENE14.3 kmh ENE 15.9 mph25.6 kmh 29.93 in1013.5 mb 0.00 in0.0 mm 0.00 in0.0 mm 0.00 in0.0 mm
05:05 PM 28.4°F-2.0°C 20.9°F-6.2°C 73% 8.1 mph ENE13.0 kmh ENE 15.9 mph25.6 kmh 29.92 in1013.2 mb 0.00 in0.0 mm 0.00 in0.0 mm 0.00 in0.0 mm
05:00 PM 28.2°F-2.1°C 20.7°F-6.3°C 73% 7.5 mph ENE12.1 kmh ENE 15.9 mph25.6 kmh 29.92 in1013.2 mb 0.00 in0.0 mm 0.00 in0.0 mm 0.00 in0.0 mm
04:55 PM 28.0°F-2.2°C 20.9°F-6.2°C 74% 6.3 mph ENE10.1 kmh ENE 12.1 mph19.5 kmh 29.92 in1013.2 mb 0.00 in0.0 mm 0.00 in0.0 mm 0.00 in0.0 mm
04:50 PM 27.7°F-2.4°C 20.8°F-6.2°C 75% 4.8 mph ENE7.7 kmh ENE 10.7 mph17.2 kmh 29.92 in1013.2 mb 0.00 in0.0 mm 0.00 in0.0 mm 0.00 in0.0 mm
04:45 PM 27.5°F-2.5°C 20.6°F-6.3°C 75% 3.9 mph ENE6.3 kmh ENE 6.9 mph11.1 kmh 29.92 in1013.2 mb 0.00 in0.0 mm 0.00 in0.0 mm 0.00 in0.0 mm
04:40 PM 27.3°F-2.6°C 20.5°F-6.4°C 75% 3.1 mph ENE5.0 kmh ENE 6.9 mph11.1 kmh 29.92 in1013.2 mb 0.00 in0.0 mm 0.00 in0.0 mm 0.00 in0.0 mm
04:35 PM 27.3°F-2.6°C 20.5°F-6.4°C 75% 3.4 mph ENE5.5 kmh ENE 6.0 mph9.7 kmh 29.92 in1013.2 mb 0.00 in0.0 mm 0.00 in0.0 mm 0.00 in0.0 mm
04:30 PM 27.3°F-2.6°C 20.5°F-6.4°C 75% 3.6 mph ENE5.8 kmh ENE 6.0 mph9.7 kmh 29.92 in1013.2 mb 0.00 in0.0 mm 0.00 in0.0 mm 0.00 in0.0 mm
04:25 PM 27.3°F-2.6°C 20.5°F-6.4°C 75% 3.0 mph ENE4.8 kmh ENE 5.4 mph8.7 kmh 29.92 in1013.2 mb 0.00 in0.0 mm 0.00 in0.0 mm 0.00 in0.0 mm
04:20 PM 27.5°F-2.5°C 20.6°F-6.3°C 75% 3.9 mph ENE6.3 kmh ENE 8.3 mph13.4 kmh 29.92 in1013.2 mb 0.00 in0.0 mm 0.00 in0.0 mm 0.00 in0.0 mm
04:15 PM 27.7°F-2.4°C 21.1°F-6.1°C 76% 4.1 mph ENE6.6 kmh ENE 8.3 mph13.4 kmh 29.92 in1013.2 mb 0.00 in0.0 mm 0.00 in0.0 mm 0.00 in0.0 mm
04:10 PM 27.9°F-2.3°C 21.3°F-5.9°C 76% 2.6 mph ENE4.2 kmh ENE 6.0 mph9.7 kmh 29.92 in1013.2 mb 0.00 in0.0 mm 0.00 in0.0 mm 0.00 in0.0 mm
04:05 PM 27.7°F-2.4°C 21.1°F-6.1°C 76% 2.2 mph ENE3.5 kmh ENE 3.8 mph6.1 kmh 29.93 in1013.5 mb 0.00 in0.0 mm 0.00 in0.0 mm 0.00 in0.0 mm
04:00 PM 27.5°F-2.5°C 20.6°F-6.3°C 75% 1.9 mph ENE3.1 kmh ENE 3.8 mph6.1 kmh 29.92 in1013.2 mb 0.00 in0.0 mm 0.00 in0.0 mm 0.00 in0.0 mm
03:55 PM 27.5°F-2.5°C 21.0°F-6.1°C 76% 1.7 mph ENE2.7 kmh ENE 3.8 mph6.1 kmh 29.92 in1013.2 mb 0.00 in0.0 mm 0.00 in0.0 mm 0.00 in0.0 mm
03:50 PM 27.3°F-2.6°C 20.8°F-6.2°C 76% 2.0 mph ENE3.2 kmh ENE 3.8 mph6.1 kmh 29.92 in1013.2 mb 0.00 in0.0 mm 0.00 in0.0 mm 0.00 in0.0 mm
03:45 PM 27.3°F-2.6°C 20.8°F-6.2°C 76% 2.3 mph ENE3.7 kmh ENE 5.4 mph8.7 kmh 29.92 in1013.2 mb 0.00 in0.0 mm 0.00 in0.0 mm 0.00 in0.0 mm
03:40 PM 27.5°F-2.5°C 21.3°F-5.9°C 77% 2.8 mph ENE4.5 kmh ENE 5.4 mph8.7 kmh 29.92 in1013.2 mb 0.00 in0.0 mm 0.00 in0.0 mm 0.00 in0.0 mm
03:35 PM 27.7°F-2.4°C 21.7°F-5.7°C 78% 2.6 mph ENE4.2 kmh ENE 5.4 mph8.7 kmh 29.92 in1013.2 mb 0.00 in0.0 mm 0.00 in0.0 mm 0.00 in0.0 mm
03:30 PM 28.0°F-2.2°C 22.4°F-5.3°C 79% 2.5 mph ENE4.0 kmh ENE 4.5 mph7.2 kmh 29.91 in1012.9 mb 0.00 in0.0 mm 0.00 in0.0 mm 0.00 in0.0 mm
03:25 PM 27.7°F-2.4°C 22.3°F-5.4°C 80% 2.6 mph ENE4.2 kmh ENE 4.5 mph7.2 kmh 29.92 in1013.2 mb 0.00 in0.0 mm 0.00 in0.0 mm 0.00 in0.0 mm
03:20 PM 27.5°F-2.5°C 22.2°F-5.4°C 80% 2.6 mph ENE4.2 kmh ENE 4.5 mph7.2 kmh 29.92 in1013.2 mb 0.00 in0.0 mm 0.00 in0.0 mm 0.00 in0.0 mm
03:15 PM 27.5°F-2.5°C 22.2°F-5.4°C 80% 2.8 mph ENE4.5 kmh ENE 4.5 mph7.2 kmh 29.91 in1012.9 mb 0.00 in0.0 mm 0.00 in0.0 mm 0.00 in0.0 mm
03:10 PM 27.5°F-2.5°C 22.2°F-5.4°C 80% 2.7 mph ENE4.3 kmh ENE 4.5 mph7.2 kmh 29.91 in1012.9 mb 0.00 in0.0 mm 0.00 in0.0 mm 0.00 in0.0 mm
03:05 PM 27.3°F-2.6°C 22.0°F-5.6°C 80% 2.8 mph ENE4.5 kmh ENE 5.4 mph8.7 kmh 29.91 in1012.9 mb 0.00 in0.0 mm 0.00 in0.0 mm 0.00 in0.0 mm
03:00 PM 27.5°F-2.5°C 22.2°F-5.4°C 80% 3.1 mph ENE5.0 kmh ENE 5.4 mph8.7 kmh 29.91 in1012.9 mb 0.00 in0.0 mm 0.00 in0.0 mm 0.00 in0.0 mm
02:55 PM 27.5°F-2.5°C 22.2°F-5.4°C 80% 3.2 mph ENE5.1 kmh ENE 6.0 mph9.7 kmh 29.91 in1012.9 mb 0.00 in0.0 mm 0.00 in0.0 mm 0.00 in0.0 mm
02:50 PM 27.5°F-2.5°C 22.2°F-5.4°C 80% 2.9 mph ENE4.7 kmh ENE 6.0 mph9.7 kmh 29.92 in1013.2 mb 0.00 in0.0 mm 0.00 in0.0 mm 0.00 in0.0 mm
02:45 PM 27.3°F-2.6°C 22.0°F-5.6°C 80% 2.3 mph ENE3.7 kmh ENE 3.8 mph6.1 kmh 29.91 in1012.9 mb 0.00 in0.0 mm 0.00 in0.0 mm 0.00 in0.0 mm
02:40 PM 27.5°F-2.5°C 22.2°F-5.4°C 80% 1.4 mph ENE2.3 kmh ENE 3.8 mph6.1 kmh 29.92 in1013.2 mb 0.00 in0.0 mm 0.00 in0.0 mm 0.00 in0.0 mm
02:35 PM 27.3°F-2.6°C 22.0°F-5.6°C 80% 0.4 mph ENE0.6 kmh ENE 2.2 mph3.5 kmh 29.91 in1012.9 mb 0.00 in0.0 mm 0.00 in0.0 mm 0.00 in0.0 mm
02:30 PM 27.5°F-2.5°C 22.2°F-5.4°C 80% 0.6 mph ENE1.0 kmh ENE 2.2 mph3.5 kmh 29.91 in1012.9 mb 0.00 in0.0 mm 0.00 in0.0 mm 0.00 in0.0 mm
02:25 PM 27.7°F-2.4°C 22.3°F-5.4°C 80% 0.8 mph ENE1.3 kmh ENE 2.2 mph3.5 kmh 29.91 in1012.9 mb 0.00 in0.0 mm 0.00 in0.0 mm 0.00 in0.0 mm
02:20 PM 27.9°F-2.3°C 22.5°F-5.3°C 80% 0.8 mph ENE1.3 kmh ENE 3.1 mph5.0 kmh 29.91 in1012.9 mb 0.00 in0.0 mm 0.00 in0.0 mm 0.00 in0.0 mm
02:15 PM 28.2°F-2.1°C 22.9°F-5.1°C 80% 1.8 mph ENE2.9 kmh ENE 5.4 mph8.7 kmh 29.91 in1012.9 mb 0.00 in0.0 mm 0.00 in0.0 mm 0.00 in0.0 mm
02:10 PM 28.6°F-1.9°C 23.2°F-4.9°C 80% 3.2 mph ENE5.1 kmh ENE 6.9 mph11.1 kmh 29.91 in1012.9 mb 0.00 in0.0 mm 0.00 in0.0 mm 0.00 in0.0 mm
02:05 PM 28.8°F-1.8°C 23.4°F-4.8°C 80% 5.0 mph ENE8.0 kmh ENE 12.1 mph19.5 kmh 29.91 in1012.9 mb 0.00 in0.0 mm 0.00 in0.0 mm 0.00 in0.0 mm
02:00 PM 29.1°F-1.6°C 23.7°F-4.6°C 80% 6.5 mph ENE10.5 kmh ENE 12.1 mph19.5 kmh 29.91 in1012.9 mb 0.00 in0.0 mm 0.00 in0.0 mm 0.00 in0.0 mm
01:55 PM 28.8°F-1.8°C 23.4°F-4.8°C 80% 6.5 mph ENE10.5 kmh ENE 10.7 mph17.2 kmh 29.91 in1012.9 mb 0.00 in0.0 mm 0.00 in0.0 mm 0.00 in0.0 mm
01:50 PM 28.6°F-1.9°C 23.2°F-4.9°C 80% 4.5 mph ENE7.2 kmh ENE 9.8 mph15.8 kmh 29.90 in1012.5 mb 0.00 in0.0 mm 0.00 in0.0 mm 0.00 in0.0 mm
01:45 PM 28.4°F-2.0°C 23.0°F-5.0°C 80% 2.1 mph ENE3.4 kmh ENE 6.0 mph9.7 kmh 29.90 in1012.5 mb 0.00 in0.0 mm 0.00 in0.0 mm 0.00 in0.0 mm
01:40 PM 28.2°F-2.1°C 22.9°F-5.1°C 80% 2.5 mph ENE4.0 kmh ENE 5.4 mph8.7 kmh 29.90 in1012.5 mb 0.00 in0.0 mm 0.00 in0.0 mm 0.00 in0.0 mm
01:35 PM 28.0°F-2.2°C 22.7°F-5.2°C 80% 3.2 mph ENE5.1 kmh ENE 5.4 mph8.7 kmh 29.89 in1012.2 mb 0.00 in0.0 mm 0.00 in0.0 mm 0.00 in0.0 mm
01:30 PM 28.0°F-2.2°C 22.7°F-5.2°C 80% 3.0 mph ENE4.8 kmh ENE 5.4 mph8.7 kmh 29.89 in1012.2 mb 0.00 in0.0 mm 0.00 in0.0 mm 0.00 in0.0 mm
01:25 PM 28.0°F-2.2°C 22.7°F-5.2°C 80% 3.4 mph ENE5.5 kmh ENE 6.0 mph9.7 kmh 29.89 in1012.2 mb 0.00 in0.0 mm 0.00 in0.0 mm 0.00 in0.0 mm
01:20 PM 27.9°F-2.3°C 22.5°F-5.3°C 80% 4.1 mph ENE6.6 kmh ENE 7.6 mph12.2 kmh 29.89 in1012.2 mb 0.00 in0.0 mm 0.00 in0.0 mm 0.00 in0.0 mm
01:15 PM 28.0°F-2.2°C 22.7°F-5.2°C 80% 4.3 mph ENE6.9 kmh ENE 7.6 mph12.2 kmh 29.88 in1011.9 mb 0.00 in0.0 mm 0.00 in0.0 mm 0.00 in0.0 mm
01:10 PM 28.2°F-2.1°C 22.9°F-5.1°C 80% 2.9 mph ENE4.7 kmh ENE 6.0 mph9.7 kmh 29.88 in1011.9 mb 0.00 in0.0 mm 0.00 in0.0 mm 0.00 in0.0 mm
01:05 PM 28.6°F-1.9°C 23.2°F-4.9°C 80% 1.7 mph ENE2.7 kmh ENE 3.8 mph6.1 kmh 29.88 in1011.9 mb 0.00 in0.0 mm 0.00 in0.0 mm 0.00 in0.0 mm
01:00 PM 28.6°F-1.9°C 23.2°F-4.9°C 80% 0.9 mph ENE1.4 kmh ENE 2.2 mph3.5 kmh 29.87 in1011.5 mb 0.00 in0.0 mm 0.00 in0.0 mm 0.00 in0.0 mm
12:55 PM 28.6°F-1.9°C 23.2°F-4.9°C 80% 0.2 mph ENE0.3 kmh ENE 1.6 mph2.6 kmh 29.88 in1011.9 mb 0.00 in0.0 mm 0.00 in0.0 mm 0.00 in0.0 mm
12:50 PM 28.6°F-1.9°C 23.2°F-4.9°C 80% 0.4 mph ENE0.6 kmh ENE 2.2 mph3.5 kmh 29.89 in1012.2 mb 0.00 in0.0 mm 0.00 in0.0 mm 0.00 in0.0 mm
12:45 PM 28.4°F-2.0°C 23.0°F-5.0°C 80% 0.8 mph ENE1.3 kmh ENE 3.1 mph5.0 kmh 29.88 in1011.9 mb 0.00 in0.0 mm 0.00 in0.0 mm 0.00 in0.0 mm
12:40 PM 28.4°F-2.0°C 23.0°F-5.0°C 80% 1.7 mph ENE2.7 kmh ENE 4.5 mph7.2 kmh 29.88 in1011.9 mb 0.00 in0.0 mm 0.00 in0.0 mm 0.00 in0.0 mm
12:35 PM 28.4°F-2.0°C 23.0°F-5.0°C 80% 2.1 mph ENE3.4 kmh ENE 4.5 mph7.2 kmh 29.88 in1011.9 mb 0.00 in0.0 mm 0.00 in0.0 mm 0.00 in0.0 mm
12:30 PM 28.4°F-2.0°C 23.0°F-5.0°C 80% 2.3 mph ENE3.7 kmh ENE 4.5 mph7.2 kmh 29.87 in1011.5 mb 0.00 in0.0 mm 0.00 in0.0 mm 0.00 in0.0 mm
12:25 PM 28.2°F-2.1°C 22.9°F-5.1°C 80% 2.4 mph ENE3.9 kmh ENE 4.5 mph7.2 kmh 29.87 in1011.5 mb 0.00 in0.0 mm 0.00 in0.0 mm 0.00 in0.0 mm
12:20 PM 28.4°F-2.0°C 23.0°F-5.0°C 80% 2.3 mph ENE3.7 kmh ENE 3.8 mph6.1 kmh 29.87 in1011.5 mb 0.00 in0.0 mm 0.00 in0.0 mm 0.00 in0.0 mm
12:15 PM 28.4°F-2.0°C 23.0°F-5.0°C 80% 2.8 mph ENE4.5 kmh ENE 5.4 mph8.7 kmh 29.87 in1011.5 mb 0.00 in0.0 mm 0.00 in0.0 mm 0.00 in0.0 mm
12:10 PM 28.4°F-2.0°C 23.0°F-5.0°C 80% 2.6 mph ENE4.2 kmh ENE 5.4 mph8.7 kmh 29.87 in1011.5 mb 0.00 in0.0 mm 0.00 in0.0 mm 0.00 in0.0 mm
12:05 PM 28.4°F-2.0°C 23.0°F-5.0°C 80% 1.8 mph ENE2.9 kmh ENE 3.8 mph6.1 kmh 29.87 in1011.5 mb 0.00 in0.0 mm 0.00 in0.0 mm 0.00 in0.0 mm
12:00 PM 28.4°F-2.0°C 22.7°F-5.2°C 79% 1.6 mph ENE2.6 kmh ENE 3.1 mph5.0 kmh 29.86 in1011.2 mb 0.00 in0.0 mm 0.00 in0.0 mm 0.00 in0.0 mm
11:55 AM 28.6°F-1.9°C 22.9°F-5.1°C 79% 1.7 mph ENE2.7 kmh ENE 3.1 mph5.0 kmh 29.86 in1011.2 mb 0.00 in0.0 mm 0.00 in0.0 mm 0.00 in0.0 mm
11:50 AM 28.6°F-1.9°C 22.9°F-5.1°C 79% 1.1 mph ENE1.8 kmh ENE 3.1 mph5.0 kmh 29.86 in1011.2 mb 0.00 in0.0 mm 0.00 in0.0 mm 0.00 in0.0 mm
11:45 AM 28.6°F-1.9°C 22.9°F-5.1°C 79% 0.5 mph ENE0.8 kmh ENE 2.2 mph3.5 kmh 29.86 in1011.2 mb 0.00 in0.0 mm 0.00 in0.0 mm 0.00 in0.0 mm
11:40 AM 28.6°F-1.9°C 22.9°F-5.1°C 79% 1.6 mph ENE2.6 kmh ENE 5.4 mph8.7 kmh 29.86 in1011.2 mb 0.00 in0.0 mm 0.00 in0.0 mm 0.00 in0.0 mm
11:35 AM 28.4°F-2.0°C 22.7°F-5.2°C 79% 2.6 mph ENE4.2 kmh ENE 5.4 mph8.7 kmh 29.86 in1011.2 mb 0.00 in0.0 mm 0.00 in0.0 mm 0.00 in0.0 mm
11:30 AM 28.6°F-1.9°C 22.9°F-5.1°C 79% 2.8 mph ENE4.5 kmh ENE 5.4 mph8.7 kmh 29.85 in1010.8 mb 0.00 in0.0 mm 0.00 in0.0 mm 0.00 in0.0 mm
11:25 AM 28.8°F-1.8°C 23.1°F-4.9°C 79% 2.7 mph ENE4.3 kmh ENE 5.4 mph8.7 kmh 29.85 in1010.8 mb 0.00 in0.0 mm 0.00 in0.0 mm 0.00 in0.0 mm
11:20 AM 28.8°F-1.8°C 23.1°F-4.9°C 79% 2.7 mph ENE4.3 kmh ENE 4.5 mph7.2 kmh 29.85 in1010.8 mb 0.00 in0.0 mm 0.00 in0.0 mm 0.00 in0.0 mm
11:15 AM 28.8°F-1.8°C 23.1°F-4.9°C 79% 2.7 mph ENE4.3 kmh ENE 4.5 mph7.2 kmh 29.85 in1010.8 mb 0.00 in0.0 mm 0.00 in0.0 mm 0.00 in0.0 mm
11:10 AM 28.9°F-1.7°C 23.6°F-4.7°C 80% 3.2 mph ENE5.1 kmh ENE 6.9 mph11.1 kmh 29.84 in1010.5 mb 0.00 in0.0 mm 0.00 in0.0 mm 0.00 in0.0 mm
11:05 AM 28.9°F-1.7°C 23.6°F-4.7°C 80% 3.0 mph ENE4.8 kmh ENE 6.9 mph11.1 kmh 29.84 in1010.5 mb 0.00 in0.0 mm 0.00 in0.0 mm 0.00 in0.0 mm
11:00 AM 29.1°F-1.6°C 23.7°F-4.6°C 80% 2.4 mph ENE3.9 kmh ENE 5.4 mph8.7 kmh 29.84 in1010.5 mb 0.00 in0.0 mm 0.00 in0.0 mm 0.00 in0.0 mm
10:55 AM 29.1°F-1.6°C 23.7°F-4.6°C 80% 2.6 mph ENE4.2 kmh ENE 5.4 mph8.7 kmh 29.84 in1010.5 mb 0.00 in0.0 mm 0.00 in0.0 mm 0.00 in0.0 mm
10:50 AM 29.1°F-1.6°C 23.7°F-4.6°C 80% 2.2 mph ENE3.5 kmh ENE 3.8 mph6.1 kmh 29.84 in1010.5 mb 0.00 in0.0 mm 0.00 in0.0 mm 0.00 in0.0 mm
10:45 AM 28.9°F-1.7°C 23.6°F-4.7°C 80% 2.3 mph ENE3.7 kmh ENE 3.8 mph6.1 kmh 29.84 in1010.5 mb 0.00 in0.0 mm 0.00 in0.0 mm 0.00 in0.0 mm
10:40 AM 28.9°F-1.7°C 23.6°F-4.7°C 80% 3.0 mph ENE4.8 kmh ENE 8.3 mph13.4 kmh 29.84 in1010.5 mb 0.00 in0.0 mm 0.00 in0.0 mm 0.00 in0.0 mm
10:35 AM 28.9°F-1.7°C 23.6°F-4.7°C 80% 4.1 mph ENE6.6 kmh ENE 8.3 mph13.4 kmh 29.84 in1010.5 mb 0.00 in0.0 mm 0.00 in0.0 mm 0.00 in0.0 mm
10:30 AM 28.9°F-1.7°C 23.6°F-4.7°C 80% 2.8 mph ENE4.5 kmh ENE 8.3 mph13.4 kmh 29.84 in1010.5 mb 0.00 in0.0 mm 0.00 in0.0 mm 0.00 in0.0 mm
10:25 AM 29.1°F-1.6°C 23.7°F-4.6°C 80% 0.6 mph ENE1.0 kmh ENE 3.1 mph5.0 kmh 29.84 in1010.5 mb 0.00 in0.0 mm 0.00 in0.0 mm 0.00 in0.0 mm
10:20 AM 29.3°F-1.5°C 23.9°F-4.5°C 80% 0.1 mph ENE0.2 kmh ENE 1.6 mph2.6 kmh 29.83 in1010.2 mb 0.00 in0.0 mm 0.00 in0.0 mm 0.00 in0.0 mm
10:15 AM 29.1°F-1.6°C 23.7°F-4.6°C 80% 0.2 mph ENE0.3 kmh ENE 1.6 mph2.6 kmh 29.83 in1010.2 mb 0.00 in0.0 mm 0.00 in0.0 mm 0.00 in0.0 mm
10:10 AM 29.3°F-1.5°C 23.9°F-4.5°C 80% 0.2 mph ENE0.3 kmh ENE 1.6 mph2.6 kmh 29.83 in1010.2 mb 0.00 in0.0 mm 0.00 in0.0 mm 0.00 in0.0 mm
10:05 AM 29.1°F-1.6°C 23.7°F-4.6°C 80% 0.2 mph ENE0.3 kmh ENE 2.2 mph3.5 kmh 29.83 in1010.2 mb 0.00 in0.0 mm 0.00 in0.0 mm 0.00 in0.0 mm
10:00 AM 28.9°F-1.7°C 23.6°F-4.7°C 80% 0.3 mph ENE0.5 kmh ENE 2.2 mph3.5 kmh 29.82 in1009.8 mb 0.00 in0.0 mm 0.00 in0.0 mm 0.00 in0.0 mm
09:55 AM 28.8°F-1.8°C 23.4°F-4.8°C 80% 0.9 mph ENE1.4 kmh ENE 3.8 mph6.1 kmh 29.82 in1009.8 mb 0.00 in0.0 mm 0.00 in0.0 mm 0.00 in0.0 mm
09:50 AM 28.6°F-1.9°C 23.2°F-4.9°C 80% 1.8 mph ENE2.9 kmh ENE 5.4 mph8.7 kmh 29.82 in1009.8 mb 0.00 in0.0 mm 0.00 in0.0 mm 0.00 in0.0 mm
09:45 AM 28.6°F-1.9°C 23.2°F-4.9°C 80% 2.1 mph ENE3.4 kmh ENE 5.4 mph8.7 kmh 29.82 in1009.8 mb 0.00 in0.0 mm 0.00 in0.0 mm 0.00 in0.0 mm
09:40 AM 28.6°F-1.9°C 23.2°F-4.9°C 80% 1.8 mph ENE2.9 kmh ENE 4.5 mph7.2 kmh 29.82 in1009.8 mb 0.00 in0.0 mm 0.00 in0.0 mm 0.00 in0.0 mm
09:35 AM 28.6°F-1.9°C 23.2°F-4.9°C 80% 0.8 mph ENE1.3 kmh ENE 3.8 mph6.1 kmh 29.82 in1009.8 mb 0.00 in0.0 mm 0.00 in0.0 mm 0.00 in0.0 mm
09:30 AM 28.6°F-1.9°C 22.9°F-5.1°C 79% 0.1 mph ENE0.2 kmh ENE 2.2 mph3.5 kmh 29.81 in1009.5 mb 0.00 in0.0 mm 0.00 in0.0 mm 0.00 in0.0 mm
09:25 AM 28.6°F-1.9°C 22.9°F-5.1°C 79% 0.1 mph ENE0.2 kmh ENE 1.6 mph2.6 kmh 29.80 in1009.1 mb 0.00 in0.0 mm 0.00 in0.0 mm 0.00 in0.0 mm
09:20 AM 28.4°F-2.0°C 22.7°F-5.2°C 79% 0.5 mph ENE0.8 kmh ENE 1.6 mph2.6 kmh 29.80 in1009.1 mb 0.00 in0.0 mm 0.00 in0.0 mm 0.00 in0.0 mm
09:15 AM 28.4°F-2.0°C 22.7°F-5.2°C 79% 0.7 mph ENE1.1 kmh ENE 2.2 mph3.5 kmh 29.79 in1008.8 mb 0.00 in0.0 mm 0.00 in0.0 mm 0.00 in0.0 mm
09:10 AM 28.4°F-2.0°C 22.7°F-5.2°C 79% 0.6 mph ENE1.0 kmh ENE 2.2 mph3.5 kmh 29.80 in1009.1 mb 0.00 in0.0 mm 0.00 in0.0 mm 0.00 in0.0 mm
09:05 AM 28.4°F-2.0°C 22.7°F-5.2°C 79% 0.9 mph ENE1.4 kmh ENE 2.2 mph3.5 kmh 29.80 in1009.1 mb 0.00 in0.0 mm 0.00 in0.0 mm 0.00 in0.0 mm
09:00 AM 28.4°F-2.0°C 22.7°F-5.2°C 79% 1.3 mph ENE2.1 kmh ENE 2.2 mph3.5 kmh 29.80 in1009.1 mb 0.00 in0.0 mm 0.00 in0.0 mm 0.00 in0.0 mm
08:55 AM 28.4°F-2.0°C 22.7°F-5.2°C 79% 1.5 mph ENE2.4 kmh ENE 3.1 mph5.0 kmh 29.80 in1009.1 mb 0.00 in0.0 mm 0.00 in0.0 mm 0.00 in0.0 mm
08:50 AM 28.4°F-2.0°C 22.7°F-5.2°C 79% 1.6 mph ENE2.6 kmh ENE 3.8 mph6.1 kmh 29.79 in1008.8 mb 0.00 in0.0 mm 0.00 in0.0 mm 0.00 in0.0 mm
08:45 AM 28.4°F-2.0°C 22.7°F-5.2°C 79% 2.0 mph ENE3.2 kmh ENE 5.4 mph8.7 kmh 29.79 in1008.8 mb 0.00 in0.0 mm 0.00 in0.0 mm 0.00 in0.0 mm
08:40 AM 28.4°F-2.0°C 23.0°F-5.0°C 80% 3.2 mph ENE5.1 kmh ENE 6.0 mph9.7 kmh 29.79 in1008.8 mb 0.00 in0.0 mm 0.00 in0.0 mm 0.00 in0.0 mm
08:35 AM 28.4°F-2.0°C 23.0°F-5.0°C 80% 4.6 mph ENE7.4 kmh ENE 9.2 mph14.8 kmh 29.79 in1008.8 mb 0.00 in0.0 mm 0.00 in0.0 mm 0.00 in0.0 mm
08:30 AM 28.4°F-2.0°C 23.0°F-5.0°C 80% 4.9 mph ENE7.9 kmh ENE 9.2 mph14.8 kmh 29.78 in1008.5 mb 0.00 in0.0 mm 0.00 in0.0 mm 0.00 in0.0 mm
08:25 AM 28.4°F-2.0°C 23.0°F-5.0°C 80% 4.1 mph ENE6.6 kmh ENE 9.2 mph14.8 kmh 29.78 in1008.5 mb 0.00 in0.0 mm 0.00 in0.0 mm 0.00 in0.0 mm
08:20 AM 28.4°F-2.0°C 23.0°F-5.0°C 80% 3.9 mph ENE6.3 kmh ENE 7.6 mph12.2 kmh 29.78 in1008.5 mb 0.00 in0.0 mm 0.00 in0.0 mm 0.00 in0.0 mm
08:15 AM 28.4°F-2.0°C 23.0°F-5.0°C 80% 3.9 mph ENE6.3 kmh ENE 6.0 mph9.7 kmh 29.78 in1008.5 mb 0.00 in0.0 mm 0.00 in0.0 mm 0.00 in0.0 mm
08:10 AM 28.2°F-2.1°C 22.9°F-5.1°C 80% 3.4 mph ENE5.5 kmh ENE 6.0 mph9.7 kmh 29.78 in1008.5 mb 0.00 in0.0 mm 0.00 in0.0 mm 0.00 in0.0 mm
08:05 AM 28.2°F-2.1°C 22.9°F-5.1°C 80% 3.2 mph ENE5.1 kmh ENE 6.0 mph9.7 kmh 29.77 in1008.1 mb 0.00 in0.0 mm 0.00 in0.0 mm 0.00 in0.0 mm
08:00 AM 28.2°F-2.1°C 22.9°F-5.1°C 80% 3.7 mph ENE6.0 kmh ENE 6.9 mph11.1 kmh 29.77 in1008.1 mb 0.00 in0.0 mm 0.00 in0.0 mm 0.00 in0.0 mm
07:55 AM 28.4°F-2.0°C 23.0°F-5.0°C 80% 4.1 mph ENE6.6 kmh ENE 6.9 mph11.1 kmh 29.77 in1008.1 mb 0.00 in0.0 mm 0.00 in0.0 mm 0.00 in0.0 mm
07:50 AM 28.4°F-2.0°C 23.0°F-5.0°C 80% 4.1 mph ENE6.6 kmh ENE 6.9 mph11.1 kmh 29.77 in1008.1 mb 0.00 in0.0 mm 0.00 in0.0 mm 0.00 in0.0 mm
07:45 AM 28.4°F-2.0°C 23.0°F-5.0°C 80% 4.2 mph ENE6.8 kmh ENE 9.8 mph15.8 kmh 29.77 in1008.1 mb 0.00 in0.0 mm 0.00 in0.0 mm 0.00 in0.0 mm
07:40 AM 28.4°F-2.0°C 23.0°F-5.0°C 80% 5.1 mph ENE8.2 kmh ENE 9.8 mph15.8 kmh 29.76 in1007.8 mb 0.00 in0.0 mm 0.00 in0.0 mm 0.00 in0.0 mm
07:35 AM 28.4°F-2.0°C 23.3°F-4.8°C 81% 6.0 mph ENE9.7 kmh ENE 9.8 mph15.8 kmh 29.76 in1007.8 mb 0.00 in0.0 mm 0.00 in0.0 mm 0.00 in0.0 mm
07:30 AM 28.4°F-2.0°C 23.3°F-4.8°C 81% 4.0 mph ENE6.4 kmh ENE 9.8 mph15.8 kmh 29.76 in1007.8 mb 0.00 in0.0 mm 0.00 in0.0 mm 0.00 in0.0 mm
07:25 AM 28.4°F-2.0°C 23.3°F-4.8°C 81% 2.0 mph ENE3.2 kmh ENE 5.4 mph8.7 kmh 29.75 in1007.5 mb 0.00 in0.0 mm 0.00 in0.0 mm 0.00 in0.0 mm
07:20 AM 28.4°F-2.0°C 23.3°F-4.8°C 81% 2.7 mph ENE4.3 kmh ENE 7.6 mph12.2 kmh 29.76 in1007.8 mb 0.00 in0.0 mm 0.00 in0.0 mm 0.00 in0.0 mm
07:15 AM 28.4°F-2.0°C 23.3°F-4.8°C 81% 3.3 mph ENE5.3 kmh ENE 7.6 mph12.2 kmh 29.75 in1007.5 mb 0.00 in0.0 mm 0.00 in0.0 mm 0.00 in0.0 mm
07:10 AM 28.4°F-2.0°C 23.3°F-4.8°C 81% 3.1 mph ENE5.0 kmh ENE 6.0 mph9.7 kmh 29.75 in1007.5 mb 0.00 in0.0 mm 0.00 in0.0 mm 0.00 in0.0 mm
07:05 AM 28.4°F-2.0°C 23.3°F-4.8°C 81% 3.5 mph ENE5.6 kmh ENE 6.9 mph11.1 kmh 29.75 in1007.5 mb 0.00 in0.0 mm 0.00 in0.0 mm 0.00 in0.0 mm
07:00 AM 28.4°F-2.0°C 23.3°F-4.8°C 81% 4.2 mph ENE6.8 kmh ENE 6.9 mph11.1 kmh 29.75 in1007.5 mb 0.00 in0.0 mm 0.00 in0.0 mm 0.00 in0.0 mm
06:55 AM 28.4°F-2.0°C 23.3°F-4.8°C 81% 4.0 mph ENE6.4 kmh ENE 6.9 mph11.1 kmh 29.75 in1007.5 mb 0.00 in0.0 mm 0.00 in0.0 mm 0.00 in0.0 mm
06:50 AM 28.4°F-2.0°C 23.3°F-4.8°C 81% 4.2 mph ENE6.8 kmh ENE 6.9 mph11.1 kmh 29.75 in1007.5 mb 0.00 in0.0 mm 0.00 in0.0 mm 0.00 in0.0 mm
06:45 AM 28.6°F-1.9°C 23.5°F-4.7°C 81% 4.3 mph ENE6.9 kmh ENE 7.6 mph12.2 kmh 29.75 in1007.5 mb 0.00 in0.0 mm 0.00 in0.0 mm 0.00 in0.0 mm
06:40 AM 28.4°F-2.0°C 23.3°F-4.8°C 81% 5.1 mph ENE8.2 kmh ENE 9.8 mph15.8 kmh 29.74 in1007.1 mb 0.00 in0.0 mm 0.00 in0.0 mm 0.00 in0.0 mm
06:35 AM 28.6°F-1.9°C 23.5°F-4.7°C 81% 6.4 mph ENE10.3 kmh ENE 9.8 mph15.8 kmh 29.74 in1007.1 mb 0.00 in0.0 mm 0.00 in0.0 mm 0.00 in0.0 mm
06:30 AM 28.4°F-2.0°C 23.3°F-4.8°C 81% 6.3 mph ENE10.1 kmh ENE 9.8 mph15.8 kmh 29.74 in1007.1 mb 0.00 in0.0 mm 0.00 in0.0 mm 0.00 in0.0 mm
06:25 AM 28.6°F-1.9°C 23.8°F-4.6°C 82% 6.9 mph ENE11.1 kmh ENE 13.6 mph21.9 kmh 29.74 in1007.1 mb 0.00 in0.0 mm 0.00 in0.0 mm 0.00 in0.0 mm
06:20 AM 28.8°F-1.8°C 24.0°F-4.4°C 82% 6.9 mph ENE11.1 kmh ENE 13.6 mph21.9 kmh 29.74 in1007.1 mb 0.00 in0.0 mm 0.00 in0.0 mm 0.00 in0.0 mm
06:15 AM 28.4°F-2.0°C 23.6°F-4.7°C 82% 5.7 mph ENE9.2 kmh ENE 10.7 mph17.2 kmh 29.74 in1007.1 mb 0.00 in0.0 mm 0.00 in0.0 mm 0.00 in0.0 mm
06:10 AM 28.2°F-2.1°C 23.5°F-4.7°C 82% 8.0 mph ENE12.9 kmh ENE 17.4 mph28.0 kmh 29.73 in1006.8 mb 0.00 in0.0 mm 0.00 in0.0 mm 0.00 in0.0 mm
06:05 AM 28.4°F-2.0°C 23.6°F-4.7°C 82% 9.8 mph ENE15.8 kmh ENE 17.4 mph28.0 kmh 29.73 in1006.8 mb 0.00 in0.0 mm 0.00 in0.0 mm 0.00 in0.0 mm
06:00 AM 28.6°F-1.9°C 23.8°F-4.6°C 82% 9.5 mph ENE15.3 kmh ENE 16.8 mph27.0 kmh 29.73 in1006.8 mb 0.00 in0.0 mm 0.00 in0.0 mm 0.00 in0.0 mm
05:55 AM 28.8°F-1.8°C 24.0°F-4.4°C 82% 9.0 mph ENE14.5 kmh ENE 17.4 mph28.0 kmh 29.73 in1006.8 mb 0.00 in0.0 mm 0.00 in0.0 mm 0.00 in0.0 mm
05:50 AM 29.1°F-1.6°C 24.3°F-4.3°C 82% 7.2 mph ENE11.6 kmh ENE 17.4 mph28.0 kmh 29.73 in1006.8 mb 0.00 in0.0 mm 0.00 in0.0 mm 0.00 in0.0 mm
05:45 AM 29.3°F-1.5°C 24.5°F-4.2°C 82% 5.5 mph ENE8.9 kmh ENE 9.2 mph14.8 kmh 29.73 in1006.8 mb 0.00 in0.0 mm 0.00 in0.0 mm 0.00 in0.0 mm
05:40 AM 29.5°F-1.4°C 24.7°F-4.1°C 82% 4.1 mph ENE6.6 kmh ENE 9.2 mph14.8 kmh 29.73 in1006.8 mb 0.00 in0.0 mm 0.00 in0.0 mm 0.00 in0.0 mm
05:35 AM 29.5°F-1.4°C 24.7°F-4.1°C 82% 5.4 mph ENE8.7 kmh ENE 13.0 mph20.9 kmh 29.72 in1006.4 mb 0.00 in0.0 mm 0.00 in0.0 mm 0.00 in0.0 mm
05:30 AM 29.5°F-1.4°C 24.7°F-4.1°C 82% 7.6 mph ENE12.2 kmh ENE 15.2 mph24.5 kmh 29.72 in1006.4 mb 0.00 in0.0 mm 0.00 in0.0 mm 0.00 in0.0 mm
05:25 AM 29.5°F-1.4°C 24.7°F-4.1°C 82% 6.3 mph ENE10.1 kmh ENE 15.2 mph24.5 kmh 29.72 in1006.4 mb 0.00 in0.0 mm 0.00 in0.0 mm 0.00 in0.0 mm
05:20 AM 29.5°F-1.4°C 24.7°F-4.1°C 82% 6.1 mph ENE9.8 kmh ENE 13.0 mph20.9 kmh 29.72 in1006.4 mb 0.00 in0.0 mm 0.00 in0.0 mm 0.00 in0.0 mm
05:15 AM 29.5°F-1.4°C 24.7°F-4.1°C 82% 7.4 mph ENE11.9 kmh ENE 13.0 mph20.9 kmh 29.71 in1006.1 mb 0.00 in0.0 mm 0.00 in0.0 mm 0.00 in0.0 mm
05:10 AM 29.7°F-1.3°C 24.9°F-3.9°C 82% 6.7 mph ENE10.8 kmh ENE 13.0 mph20.9 kmh 29.71 in1006.1 mb 0.00 in0.0 mm 0.00 in0.0 mm 0.00 in0.0 mm
05:05 AM 29.8°F-1.2°C 25.0°F-3.9°C 82% 5.8 mph ENE9.3 kmh ENE 10.7 mph17.2 kmh 29.71 in1006.1 mb 0.00 in0.0 mm 0.00 in0.0 mm 0.00 in0.0 mm
05:00 AM 29.7°F-1.3°C 24.9°F-3.9°C 82% 7.2 mph ENE11.6 kmh ENE 14.5 mph23.3 kmh 29.70 in1005.8 mb 0.00 in0.0 mm 0.00 in0.0 mm 0.00 in0.0 mm
04:55 AM 29.7°F-1.3°C 24.9°F-3.9°C 82% 7.9 mph ENE12.7 kmh ENE 14.5 mph23.3 kmh 29.70 in1005.8 mb 0.00 in0.0 mm 0.00 in0.0 mm 0.00 in0.0 mm
04:50 AM 29.7°F-1.3°C 24.9°F-3.9°C 82% 7.7 mph ENE12.4 kmh ENE 15.2 mph24.5 kmh 29.70 in1005.8 mb 0.00 in0.0 mm 0.00 in0.0 mm 0.00 in0.0 mm
04:45 AM 29.7°F-1.3°C 24.9°F-3.9°C 82% 7.0 mph ENE11.3 kmh ENE 15.2 mph24.5 kmh 29.70 in1005.8 mb 0.00 in0.0 mm 0.00 in0.0 mm 0.00 in0.0 mm
04:40 AM 29.8°F-1.2°C 25.0°F-3.9°C 82% 6.1 mph ENE9.8 kmh ENE 14.5 mph23.3 kmh 29.70 in1005.8 mb 0.00 in0.0 mm 0.00 in0.0 mm 0.00 in0.0 mm
04:35 AM 30.0°F-1.1°C 25.2°F-3.8°C 82% 6.1 mph ENE9.8 kmh ENE 14.5 mph23.3 kmh 29.69 in1005.4 mb 0.00 in0.0 mm 0.00 in0.0 mm 0.00 in0.0 mm
04:30 AM 30.2°F-1.0°C 25.4°F-3.7°C 82% 5.9 mph ENE9.5 kmh ENE 14.5 mph23.3 kmh 29.69 in1005.4 mb 0.00 in0.0 mm 0.00 in0.0 mm 0.00 in0.0 mm
04:25 AM 30.2°F-1.0°C 25.4°F-3.7°C 82% 5.7 mph ENE9.2 kmh ENE 12.1 mph19.5 kmh 29.68 in1005.1 mb 0.00 in0.0 mm 0.00 in0.0 mm 0.00 in0.0 mm
04:20 AM 30.4°F-0.9°C 25.6°F-3.6°C 82% 6.4 mph ENE10.3 kmh ENE 14.5 mph23.3 kmh 29.68 in1005.1 mb 0.00 in0.0 mm 0.00 in0.0 mm 0.00 in0.0 mm
04:15 AM 30.2°F-1.0°C 25.4°F-3.7°C 82% 8.0 mph ENE12.9 kmh ENE 17.4 mph28.0 kmh 29.68 in1005.1 mb 0.00 in0.0 mm 0.00 in0.0 mm 0.00 in0.0 mm
04:10 AM 30.2°F-1.0°C 25.4°F-3.7°C 82% 10.9 mph ENE17.5 kmh ENE 22.1 mph35.6 kmh 29.68 in1005.1 mb 0.00 in0.0 mm 0.00 in0.0 mm 0.00 in0.0 mm
04:05 AM 30.2°F-1.0°C 25.4°F-3.7°C 82% 10.6 mph ENE17.1 kmh ENE 22.1 mph35.6 kmh 29.67 in1004.7 mb 0.00 in0.0 mm 0.00 in0.0 mm 0.00 in0.0 mm
04:00 AM 30.4°F-0.9°C 25.6°F-3.6°C 82% 7.9 mph ENE12.7 kmh ENE 18.3 mph29.5 kmh 29.66 in1004.4 mb 0.00 in0.0 mm 0.00 in0.0 mm 0.00 in0.0 mm
03:55 AM 30.6°F-0.8°C 25.7°F-3.5°C 82% 9.1 mph ENE14.6 kmh ENE 18.3 mph29.5 kmh 29.65 in1004.1 mb 0.00 in0.0 mm 0.00 in0.0 mm 0.00 in0.0 mm
03:50 AM 30.6°F-0.8°C 25.7°F-3.5°C 82% 10.6 mph ENE17.1 kmh ENE 19.0 mph30.6 kmh 29.65 in1004.1 mb 0.00 in0.0 mm 0.00 in0.0 mm 0.00 in0.0 mm
03:45 AM 30.7°F-0.7°C 25.9°F-3.4°C 82% 9.4 mph ENE15.1 kmh ENE 19.0 mph30.6 kmh 29.64 in1003.7 mb 0.00 in0.0 mm 0.00 in0.0 mm 0.00 in0.0 mm
03:40 AM 30.9°F-0.6°C 26.1°F-3.3°C 82% 8.6 mph ENE13.8 kmh ENE 17.4 mph28.0 kmh 29.63 in1003.4 mb 0.00 in0.0 mm 0.00 in0.0 mm 0.00 in0.0 mm
03:35 AM 30.9°F-0.6°C 26.1°F-3.3°C 82% 10.7 mph ENE17.2 kmh ENE 19.7 mph31.7 kmh 29.63 in1003.4 mb 0.00 in0.0 mm 0.00 in0.0 mm 0.00 in0.0 mm
03:30 AM 30.9°F-0.6°C 25.8°F-3.4°C 81% 12.3 mph ENE19.8 kmh ENE 22.8 mph36.7 kmh 29.63 in1003.4 mb 0.00 in0.0 mm 0.00 in0.0 mm 0.00 in0.0 mm
03:25 AM 30.9°F-0.6°C 25.8°F-3.4°C 81% 11.1 mph ENE17.9 kmh ENE 22.8 mph36.7 kmh 29.62 in1003.0 mb 0.00 in0.0 mm 0.00 in0.0 mm 0.00 in0.0 mm
03:20 AM 31.3°F-0.4°C 26.1°F-3.3°C 81% 10.5 mph ENE16.9 kmh ENE 19.0 mph30.6 kmh 29.62 in1003.0 mb 0.00 in0.0 mm 0.00 in0.0 mm 0.00 in0.0 mm
03:15 AM 31.3°F-0.4°C 26.1°F-3.3°C 81% 11.1 mph ENE17.9 kmh ENE 19.0 mph30.6 kmh 29.61 in1002.7 mb 0.00 in0.0 mm 0.00 in0.0 mm 0.00 in0.0 mm
03:10 AM 31.5°F-0.3°C 26.3°F-3.2°C 81% 12.2 mph ENE19.6 kmh ENE 20.6 mph33.2 kmh 29.61 in1002.7 mb 0.00 in0.0 mm 0.00 in0.0 mm 0.00 in0.0 mm
03:05 AM 31.5°F-0.3°C 26.3°F-3.2°C 81% 11.8 mph ENE19.0 kmh ENE 20.6 mph33.2 kmh 29.61 in1002.7 mb 0.00 in0.0 mm 0.00 in0.0 mm 0.00 in0.0 mm
03:00 AM 31.5°F-0.3°C 26.3°F-3.2°C 81% 10.9 mph ENE17.5 kmh ENE 20.6 mph33.2 kmh 29.60 in1002.4 mb 0.00 in0.0 mm 0.00 in0.0 mm 0.00 in0.0 mm
02:55 AM 31.5°F-0.3°C 26.3°F-3.2°C 81% 12.3 mph NE19.8 kmh NE 23.5 mph37.8 kmh 29.59 in1002.0 mb 0.00 in0.0 mm 0.00 in0.0 mm 0.00 in0.0 mm
02:50 AM 31.5°F-0.3°C 26.3°F-3.2°C 81% 13.7 mph N22.0 kmh N 24.4 mph39.3 kmh 29.59 in1002.0 mb 0.00 in0.0 mm 0.00 in0.0 mm 0.00 in0.0 mm
02:45 AM 31.6°F-0.2°C 26.5°F-3.1°C 81% 14.4 mph N23.2 kmh N 24.4 mph39.3 kmh 29.59 in1002.0 mb 0.00 in0.0 mm 0.00 in0.0 mm 0.00 in0.0 mm
02:40 AM 31.8°F-0.1°C 26.7°F-2.9°C 81% 13.1 mph NNW21.1 kmh NNW 24.4 mph39.3 kmh 29.58 in1001.7 mb 0.00 in0.0 mm 0.00 in0.0 mm 0.00 in0.0 mm
02:35 AM 32.0°F0.0°C 26.9°F-2.8°C 81% 11.5 mph NW18.5 kmh NW 21.3 mph34.3 kmh 29.57 in1001.4 mb 0.00 in0.0 mm 0.00 in0.0 mm 0.00 in0.0 mm
02:30 AM 32.2°F0.1°C 27.0°F-2.8°C 81% 11.0 mph NNW17.7 kmh NNW 21.3 mph34.3 kmh 29.56 in1001.0 mb 0.00 in0.0 mm 0.00 in0.0 mm 0.00 in0.0 mm
02:25 AM 32.4°F0.2°C 27.2°F-2.7°C 81% 11.8 mph NNW19.0 kmh NNW 28.9 mph46.5 kmh 29.56 in1001.0 mb 0.00 in0.0 mm 0.00 in0.0 mm 0.00 in0.0 mm
02:20 AM 32.4°F0.2°C 27.2°F-2.7°C 81% 12.8 mph NNW20.6 kmh NNW 28.9 mph46.5 kmh 29.56 in1001.0 mb 0.00 in0.0 mm 0.00 in0.0 mm 0.00 in0.0 mm
02:15 AM 32.4°F0.2°C 27.2°F-2.7°C 81% 11.9 mph NNW19.2 kmh NNW 28.9 mph46.5 kmh 29.55 in1000.7 mb 0.00 in0.0 mm 0.00 in0.0 mm 0.00 in0.0 mm
02:10 AM 32.4°F0.2°C 27.2°F-2.7°C 81% 12.1 mph NNW19.5 kmh NNW 19.0 mph30.6 kmh 29.54 in1000.3 mb 0.00 in0.0 mm 0.00 in0.0 mm 0.00 in0.0 mm
02:05 AM 32.5°F0.3°C 27.4°F-2.6°C 81% 13.5 mph N21.7 kmh N 22.8 mph36.7 kmh 29.54 in1000.3 mb 0.00 in0.0 mm 0.00 in0.0 mm 0.00 in0.0 mm
02:00 AM 32.5°F0.3°C 27.4°F-2.6°C 81% 13.7 mph N22.0 kmh N 22.8 mph36.7 kmh 29.53 in1000.0 mb 0.00 in0.0 mm 0.00 in0.0 mm 0.00 in0.0 mm
01:55 AM 32.5°F0.3°C 27.1°F-2.7°C 80% 11.6 mph N18.7 kmh N 21.3 mph34.3 kmh 29.52 in999.7 mb 0.00 in0.0 mm 0.00 in0.0 mm 0.00 in0.0 mm
01:50 AM 32.7°F0.4°C 27.3°F-2.6°C 80% 8.9 mph N14.3 kmh N 21.3 mph34.3 kmh 29.52 in999.7 mb 0.00 in0.0 mm 0.00 in0.0 mm 0.00 in0.0 mm
01:45 AM 32.7°F0.4°C 27.3°F-2.6°C 80% 12.7 mph NNW20.4 kmh NNW 28.9 mph46.5 kmh 29.51 in999.3 mb 0.00 in0.0 mm 0.00 in0.0 mm 0.00 in0.0 mm
01:40 AM 32.7°F0.4°C 27.3°F-2.6°C 80% 16.1 mph N25.9 kmh N 28.9 mph46.5 kmh 29.51 in999.3 mb 0.00 in0.0 mm 0.00 in0.0 mm 0.00 in0.0 mm
01:35 AM 33.4°F0.8°C 27.3°F-2.6°C 78% 13.9 mph N22.4 kmh N 23.5 mph37.8 kmh 29.50 in999.0 mb 0.00 in0.0 mm 0.00 in0.0 mm 0.00 in0.0 mm
01:30 AM 33.6°F0.9°C 27.5°F-2.5°C 78% 12.4 mph N20.0 kmh N 19.7 mph31.7 kmh 29.50 in999.0 mb 0.00 in0.0 mm 0.00 in0.0 mm 0.00 in0.0 mm
01:25 AM 33.8°F1.0°C 27.4°F-2.6°C 77% 12.6 mph N20.3 kmh N 19.7 mph31.7 kmh 29.49 in998.6 mb 0.00 in0.0 mm 0.00 in0.0 mm 0.00 in0.0 mm
01:20 AM 34.0°F1.1°C 27.9°F-2.3°C 78% 13.1 mph NNW21.1 kmh NNW 19.7 mph31.7 kmh 29.48 in998.3 mb 0.00 in0.0 mm 0.00 in0.0 mm 0.00 in0.0 mm
01:15 AM 33.8°F1.0°C 27.7°F-2.4°C 78% 10.8 mph N17.4 kmh N 19.7 mph31.7 kmh 29.48 in998.3 mb 0.00 in0.0 mm 0.00 in0.0 mm 0.00 in0.0 mm
01:10 AM 33.6°F0.9°C 27.5°F-2.5°C 78% 10.4 mph N16.7 kmh N 19.0 mph30.6 kmh 29.47 in998.0 mb 0.00 in0.0 mm 0.00 in0.0 mm 0.00 in0.0 mm
01:05 AM 33.8°F1.0°C 27.7°F-2.4°C 78% 12.4 mph N20.0 kmh N 22.1 mph35.6 kmh 29.46 in997.6 mb 0.00 in0.0 mm 0.00 in0.0 mm 0.00 in0.0 mm
01:00 AM 33.8°F1.0°C 28.3°F-2.1°C 80% 10.9 mph N17.5 kmh N 22.1 mph35.6 kmh 29.46 in997.6 mb 0.00 in0.0 mm 0.00 in0.0 mm 0.00 in0.0 mm
12:55 AM 33.8°F1.0°C 28.3°F-2.1°C 80% 10.3 mph N16.6 kmh N 20.6 mph33.2 kmh 29.45 in997.3 mb 0.00 in0.0 mm 0.00 in0.0 mm 0.00 in0.0 mm
12:50 AM 33.8°F1.0°C 28.3°F-2.1°C 80% 10.7 mph N17.2 kmh N 20.6 mph33.2 kmh 29.45 in997.3 mb 0.00 in0.0 mm 0.00 in0.0 mm 0.00 in0.0 mm
12:45 AM 33.6°F0.9°C 28.4°F-2.0°C 81% 9.0 mph N14.5 kmh N 20.6 mph33.2 kmh 29.44 in997.0 mb 0.00 in0.0 mm 0.00 in0.0 mm 0.00 in0.0 mm
12:40 AM 33.4°F0.8°C 28.0°F-2.2°C 80% 8.3 mph N13.4 kmh N 17.4 mph28.0 kmh 29.44 in997.0 mb 0.00 in0.0 mm 0.00 in0.0 mm 0.00 in0.0 mm
12:35 AM 33.4°F0.8°C 28.0°F-2.2°C 80% 7.6 mph NNW12.2 kmh NNW 17.4 mph28.0 kmh 29.43 in996.6 mb 0.00 in0.0 mm 0.00 in0.0 mm 0.00 in0.0 mm
12:30 AM 33.1°F0.6°C 27.6°F-2.4°C 80% 5.7 mph NNW9.2 kmh NNW 17.4 mph28.0 kmh 29.43 in996.6 mb 0.00 in0.0 mm 0.00 in0.0 mm 0.00 in0.0 mm
12:25 AM 33.1°F0.6°C 27.6°F-2.4°C 80% 3.8 mph N6.1 kmh N 9.2 mph14.8 kmh 29.43 in996.6 mb 0.00 in0.0 mm 0.00 in0.0 mm 0.00 in0.0 mm
12:20 AM 32.9°F0.5°C 27.1°F-2.7°C 79% 2.6 mph N4.2 kmh N 9.2 mph14.8 kmh 29.42 in996.3 mb 0.00 in0.0 mm 0.00 in0.0 mm 0.00 in0.0 mm
12:15 AM 32.9°F0.5°C 27.1°F-2.7°C 79% 2.3 mph N3.7 kmh N 3.8 mph6.1 kmh 29.42 in996.3 mb 0.00 in0.0 mm 0.00 in0.0 mm 0.00 in0.0 mm
12:10 AM 33.1°F0.6°C 27.0°F-2.8°C 78% 2.1 mph N3.4 kmh N 3.8 mph6.1 kmh 29.41 in995.9 mb 0.00 in0.0 mm 0.00 in0.0 mm 0.00 in0.0 mm
12:05 AM 33.1°F0.6°C 27.0°F-2.8°C 78% 1.7 mph N2.7 kmh N 3.8 mph6.1 kmh 29.41 in995.9 mb 0.00 in0.0 mm 0.00 in0.0 mm 0.00 in0.0 mm
12:00 AM 33.1°F0.6°C 26.7°F-2.9°C 77% 1.0 mph N1.6 kmh N 2.2 mph3.5 kmh 29.41 in995.9 mb 0.00 in0.0 mm 0.00 in0.0 mm 0.00 in0.0 mm